This is the latest recevied weather packets stored in our database for station/object SQ5OUZ-1. If no packets are shown the sender has not sent any weather packets the latest 10 day(s).
| Time | Temp. | Humidity | Pressure | Rain* | Wind** | Luminosity | Snow |
|---|---|---|---|---|---|---|---|
| 1777959645 | 26.67° C | 23% | 1011.9 hPa | - | - | - | - |
| 1777958742 | 25° C | 25% | 1011.9 hPa | - | - | - | - |
| 1777957839 | 23.33° C | 28% | 1012 hPa | - | - | - | - |
| 1777956935 | 21.67° C | 31% | 1012 hPa | - | - | - | - |
| 1777956032 | 20° C | 36% | 1011.9 hPa | - | - | - | - |
| 1777955129 | 18.33° C | 41% | 1012 hPa | - | - | - | - |
| 1777954226 | 15.56° C | 46% | 1012 hPa | - | - | - | - |
| 1777953323 | 14.44° C | 49% | 1012.1 hPa | - | - | - | - |
| 1777952419 | 13.89° C | 52% | 1012.1 hPa | - | - | - | - |
| 1777951516 | 13.89° C | 52% | 1012.1 hPa | - | - | - | - |
| 1777950612 | 13.89° C | 52% | 1012.1 hPa | - | - | - | - |
| 1777949709 | 14.44° C | 50% | 1012.2 hPa | - | - | - | - |
| 1777948806 | 13.89° C | 51% | 1012.3 hPa | - | - | - | - |
| 1777947903 | 13.89° C | 52% | 1012.4 hPa | - | - | - | - |
| 1777947000 | 14.44° C | 51% | 1012.4 hPa | - | - | - | - |
| 1777946097 | 14.44° C | 49% | 1012.4 hPa | - | - | - | - |
| 1777945193 | 15° C | 49% | 1012.5 hPa | - | - | - | - |
| 1777944290 | 15° C | 49% | 1012.5 hPa | - | - | - | - |
| 1777943387 | 15.56° C | 49% | 1012.7 hPa | - | - | - | - |
| 1777942484 | 15.56° C | 47% | 1012.6 hPa | - | - | - | - |
| 1777941580 | 16.11° C | 46% | 1012.7 hPa | - | - | - | - |
| 1777940677 | 16.11° C | 44% | 1012.7 hPa | - | - | - | - |
| 1777939774 | 16.67° C | 43% | 1012.6 hPa | - | - | - | - |
| 1777938870 | 16.67° C | 42% | 1012.7 hPa | - | - | - | - |
| 1777937967 | 16.67° C | 42% | 1012.7 hPa | - | - | - | - |
* Rain since midnight (hover to see other rain measurements)
** Current wind speed in m/s (hover to see current wind gust speed)